Tiempo atmosférico en la estación meteorológica de Salamanca, Salamanca (775 m.)



Fecha
DESCASC
Temp. máxima en grados centígrados (hora)
DESCASC
Temp. mínima en grados centígrados (hora)
DESCASC
Temp. media en grados centígrados
DESCASC
Racha de viento máxima en m/sg (hora)
DESCASC
Velocidad máxima media en intervalos de 10 minutos(hora)
DESCASC
Precipitaciones diarias en mm
DESCASC
Precipitaciones de 00:00 a 06:00 en mm
DESCASC
Precipitaciones de 06:00 a 12:00 en mm
DESCASC
Precipitaciones de 12:00 a 18:00 en mm
DESCASC
Precipitaciones de 18:00 a 24:00 en mm
DESCASC
13-10-2019 21.9 (17:40) 13.7 (09:00) 17.8 11.39 (16:00) 5.56 (15:40) 0 0 0 0 0
12-10-2019 27.3 (16:00) 16.6 (00:50) 21.9 15 (16:40) 6.67 (18:10) 0 0 0 0 0
10-10-2019 25.9 (18:10) 8.6 (00:00) 17.3 6.67 (13:50) 2.78 (13:20) 0 0 0 0 0
09-10-2019 24.1 (17:00) 14.5 (00:00) 19.3 5.56 (17:50) 3.33 (01:30) 0 0 0 0 0
08-10-2019 29.2 (15:50) 10.4 (00:00) 19.8 7.78 (17:00) 3.33 (17:10) 0 0 0 0 0
07-10-2019 29.2 (18:00) 9.6 (00:00) 19.4 4.44 (14:40) 1.67 (16:00) 0 0 0 0 0
06-10-2019 26.4 (17:50) 8.4 (00:00) 17.4 4.17 (18:30) 1.94 (19:30) 0 0 0 0 0
05-10-2019 25.8 (16:00) 9.4 (08:20) 17.6 6.39 (16:30) 3.33 (16:30) 0 0 0 0 0
04-10-2019 25.6 (18:10) 12.1 (00:00) 18.9 5.56 (16:00) 2.78 (16:40) 0 0 0 0 0
03-10-2019 26.5 (17:20) 8 (00:00) 17.3 6.11 (16:20) 2.78 (15:40) 0 0 0 0 0
02-10-2019 22.5 (17:30) 9.5 (00:00) 16 5.83 (05:10) 2.78 (01:30) 0 0 0 0 0
01-10-2019 23.4 (17:10) 15.3 (00:00) 19.3 8.61 (16:50) 3.89 (15:10) 0 0 0 0 0
30-09-2019 29.6 (16:50) 11.1 (00:00) 20.4 6.94 (16:10) 3.06 (16:20) 0 0 0 0 0
29-09-2019 28.7 (18:00) 9.7 (00:00) 19.2 7.5 (13:40) 3.33 (14:10) 0 0 0 0 0
28-09-2019 29.1 (18:30) 9.9 (00:00) 19.5 4.17 (18:10) 1.94 (18:10) 0 0 0 0 0
27-09-2019 25.9 (16:50) 9.2 (00:00) 17.5 6.94 (17:00) 3.61 (18:40) 0 0 0 0 0
26-09-2019 27.1 (16:50) 10.9 (00:00) 19 8.33 (17:30) 3.61 (16:00) 0 0 0 0 0
25-09-2019 22.9 (17:30) 10.2 (00:00) 16.5 5 (18:30) 2.22 (01:30) 0 0 0 0 0
24-09-2019 21.7 (17:50) 12.3 (00:00) 17 10.28 (19:20) 5 (17:40) 0 0 0 0 0
23-09-2019 23.9 (17:10) 10 (00:00) 16.9 6.67 (17:40) 3.06 (16:30) 0 0 0 0 0
22-09-2019 20.8 (17:00) 11 (00:00) 15.9 8.89 (15:40) 4.72 (01:50) 6.7 6.7 0 0 0
21-09-2019 20.4 (15:00) 14.8 (00:00) 17.6 11.67 (15:10) 5 (15:10) 0.8 0 0.4 0.2 0.2
20-09-2019 26.4 (14:40) 15.1 (00:00) 20.8 13.61 (18:50) 3.33 (17:40) 11.7 0 0 1.5 10.2
19-09-2019 28.5 (17:20) 13.2 (00:00) 20.8 4.72 (13:40) 1.94 (13:00) 0 0 0 0 0
18-09-2019 26.5 (17:40) 13.2 (00:00) 19.8 5 (18:00) 2.78 (02:10) 0 0 0 0 0
17-09-2019 26.4 (15:30) 14.2 (00:00) 20.3 9.72 (20:50) 4.17 (23:00) 3.5 0 0 0 3.5
16-09-2019 23.2 (19:10) 13.3 (00:00) 18.3 5.83 (16:00) 2.78 (15:30) 0.1 0 0 0.1 0
15-09-2019 25.2 (16:50) 15.1 (00:00) 20.2 9.44 (17:40) 4.17 (17:40) 14.3 1.3 8.3 4.4 0.3

Gráficas

Temp. máximas Temp. mínimas Temp. medias Precipitaciones Rachas de viento máximas Velocidades máximas media en intervalos de 10 minutos

Datos horarios

Fecha y hora oficial Temperatura (ºC) Velocidad del viento (km/h) Dirección del viento Racha (km/h) Dirección de racha Precipitación (mm) Presión (hPa) Tendencia (hPa) Humedad (%)
2019-10-14 23:00:00 8.1 9 Sudoeste 18 Sudoeste 0 928.9 2.3 86
2019-10-14 22:00:00 8.5 8 Sudoeste 24 Sudoeste 0 928.1 2.6 87
2019-10-14 21:00:00 8.9 6 Sudoeste 33 Sudoeste 0.1 927.4 2.3 90
2019-10-14 20:00:00 9.4 13 Oeste 32 Oeste 1.4 926.6 2.2 85
2019-10-14 19:00:00 10.2 10 Oeste 32 Oeste 0 925.5 2.1 82
2019-10-14 18:00:00 10.4 17 Oeste 36 Sudoeste 0.1 925.1 1.4 81
2019-10-14 17:00:00 10.2 14 Sudoeste 39 Sudoeste 0.3 924.4 0.6 84
2019-10-14 16:00:00 10.6 12 Sur 55 Sudoeste 3.4 923.4 0.3 92
2019-10-14 15:00:00 11.9 19 Sudoeste 40 Sudoeste 1.7 923.7 0.9 89
2019-10-14 14:00:00 12.5 11 Sur 41 Sur 1.4 923.8 0.8 85
2019-10-14 13:00:00 14.7 17 Sur 44 Sudoeste 0 923.1 0.4 62
2019-10-14 12:00:00 13.9 15 Sur 31 Sur 0 922.8 1 76
2019-10-14 11:00:00 12.9 12 Sur 27 Sudoeste 0 923 3.3 85
2019-10-14 10:00:00 11.1 8 Sudoeste 24 Sudoeste 2 922.7 2.8 95
2019-10-14 09:00:00 10.8 12 Sudoeste 43 Sur 1.6 921.8 2.1 94
2019-10-14 08:00:00 13.8 18 Sur 57 Sur 1.5 919.7 -0.1 89
2019-10-14 07:00:00 14.6 12 Sur 24 Sudoeste 0 919.9 -0.2 79
2019-10-14 06:00:00 15.3 11 Sur 35 Sudoeste 0 919.7 -1.2 74
2019-10-14 05:00:00 15.1 5 Sudoeste 11 Sur 0 919.8 -2 71
2019-10-14 04:00:00 15.4 4 Sudeste 10 Sur 0 920.1 -2.3 70
2019-10-14 03:00:00 14.3 4 Sudeste 10 Sudeste 0 920.9 -2 75
2019-10-14 02:00:00 14.4 0 Calma 8 Este 0 921.8 -1.7 75
2019-10-14 01:00:00 16.1 4 Sudoeste 10 Sudoeste 0 922.4 -1.4 64
2019-10-14 00:00:00 16.1 2 Sudeste 8 Sudeste 0 922.9 -1 63
2019-10-13 23:00:00 16.6 5 Este 10 Sur 0 923.5 -0.4 60
2019-10-13 22:00:00 17.4 4 Sur 17 Sur 0 923.8 0 58
2019-10-13 21:00:00 17.9 9 Sur 16 Sur 0 923.9 -0.2 56
2019-10-13 20:00:00 18.9 7 Sur 26 Sur 0 923.9 -0.6 55
2019-10-13 19:00:00 20 14 Sur 35 Sur 0 923.8 -0.8 52
2019-10-13 18:00:00 21.1 17 Sur 36 Sur 0 924.1 -0.9 48
2019-10-13 17:00:00 21.3 19 Sur 37 Sur 0 924.5 -1 48
2019-10-13 16:00:00 21.3 20 Sur 41 Sudeste 0 924.6 -1.5 48
2019-10-13 15:00:00 21.5 16 Sur 38 Sur 0 925 -1.4 50
2019-10-13 14:00:00 20.9 14 Sur 36 Sudoeste 0 925.5 -0.8 51
2019-10-13 13:00:00 18.9 14 Sur 37 Sur 0 926.1 0.5 60
2019-10-13 12:00:00 17.9 16 Sur 32 Sur 0 926.4 1.1 64
2019-10-13 11:00:00 16.5 15 Sudoeste 33 Sudoeste 0 926.3 1.2 71
2019-10-13 10:00:00 15.4 10 Sur 27 Sur 0 925.6 0.7 75
2019-10-13 09:00:00 13.7 9 Sudoeste 27 Sudoeste 0 925.3 0.9 81
2019-10-13 08:00:00 14.4 14 Sudoeste 33 Sudoeste 0 925.1 0.7 80
2019-10-13 07:00:00 14.8 13 Sur 35 Sudoeste 0 924.9 0.3 80
2019-10-13 06:00:00 15.4 13 Sudoeste 30 Sur 0 924.4 -0.2 81
2019-10-13 05:00:00 15.8 12 Sur 33 Sur 0 924.4 -0.4 82
2019-10-13 04:00:00 16.3 8 Sur 24 Sur 0 924.6 -0.3 82
2019-10-13 03:00:00 17.1 8 Sur 27 Sudoeste 0 924.6 -0.3 81
2019-10-13 02:00:00 18.1 8 Sur 25 Sudeste 0 924.8 0.1 76
2019-10-13 01:00:00 19.3 10 Sur 25 Sur 0 924.9 0.5 63
2019-10-13 00:00:00 20.2 12 Sur 23 Sur 0 924.9 0.7 54
2019-10-12 23:00:00 21.2 10 Sur 31 Sudeste 0 924.7 0.8 46
2019-10-12 22:00:00 21.2 7 Sur 19 Sur 0 924.4 0.6 44
2019-10-12 21:00:00 22.4 8 Sur 25 Sudoeste 0 924.2 -0.1 41
2019-10-12 20:00:00 23.8 10 Sur 33 Sudeste 0 923.9 -0.5 39
2019-10-12 19:00:00 24.9 15 Sur 48 Sur 0 923.8 -0.8 37
2019-10-12 18:00:00 25.9 21 Sur 52 Sur 0 924.3 -1 35
2019-10-12 17:00:00 26.7 19 Sur 54 Sudeste 0 924.4 -2 35
2019-10-12 16:00:00 27.2 14 Sudeste 37 Sur 0 924.6 -2 36
2019-10-12 15:00:00 25.9 17 Sur 40 Sudoeste 0 925.3 -1.5 40
2019-10-12 14:00:00 24.1 19 Sur 49 Sur 0 926.4 -0.4 44
2019-10-12 13:00:00 23.6 18 Sur 42 Sur 0 926.6 -0.1 44
2019-10-12 12:00:00 23.7 18 Sur 39 Sur 0 926.8 0.6 45
2019-10-12 11:00:00 20.3 6 Sur 18 Sur 0 926.8 0.5 59
2019-10-12 10:00:00 19.1 5 Sudoeste 14 Sur 0 926.7 0.4 62
2019-10-12 09:00:00 18.6 5 Sur 13 Sur 0 926.2 -0.2 63
2019-10-12 08:00:00 18.7 4 Sur 13 Sur 0 926.3 0 63
2019-10-12 07:00:00 18.9 6 Sudoeste 19 Sudeste 0 926.3 -0.4 63
2019-10-12 06:00:00 19.2 7 Sudoeste 18 Sudeste 0 926.4 -0.9 62
2019-10-12 05:00:00 19.3 8 Sur 18 Sur 0 926.3 -0.7 61
2019-10-12 04:00:00 19.8 10 Sur 23 Sur 0 926.7 -0.9 60
2019-10-12 03:00:00 20.3 12 Sur 26 Sudoeste 0 927.3 -0.5 60
2019-10-12 02:00:00 17.3 3 Sudoeste 10 Sudoeste 0 927 -1.1 73
2019-10-12 01:00:00 16.8 0 Calma 6 Este 0 927.6 -0.1 75
2019-10-12 00:00:00 17.1 0 Calma 6 Nordeste 0 927.8 0.1 72
2019-10-11 23:00:00 18.3 3 Sur 9 Sur 0 928.1 0.5 62
2019-10-11 22:00:00 19.7 4 Sudoeste 9 Sur 0 927.7 0.1 57
2019-10-11 21:00:00 21.1 3 Sudoeste 11 Sur 0 927.7 0.3 52
2019-10-11 20:00:00 22.8 5 Sur 27 Sur 0 927.6 0 48
2019-10-11 19:00:00 24.3 13 Sur 37 Sudoeste 0 927.6 -0.5 43
2019-10-11 18:00:00 26.4 13 Sur 32 Sudoeste 0 927.4 -1.3 40
2019-10-11 17:00:00 27 12 Sudoeste 26 Sur 0 927.6 -2.2 40
2019-10-11 16:00:00 27.8 10 Sur 32 Sudoeste 0 928.1 -2.4 41
2019-10-11 15:00:00 27.2 10 Sudoeste 33 Sur 0 928.7 -2.3 41
2019-10-11 14:00:00 27.2 9 Sur 26 Sur 0 929.8 -1.8 42
2019-10-11 13:00:00 25.3 4 Este 9 Sudeste 0 930.5 -1 44
2019-10-11 12:00:00 21.4 0 Calma 8 Sur 0 931 0.1 55
2019-10-11 11:00:00 17 0 Calma 0 Calma 0 931.6 1 65
2019-10-11 10:00:00 13.3 0 Calma 0 Calma 0 931.5 1.2 76
2019-10-11 09:00:00 10.3 0 Calma 0 Calma 0 930.9 0.7 84
2019-10-11 08:00:00 10 0 Calma 0 Calma 0 930.6 0.3 84
2019-10-11 07:00:00 10 0 Calma 0 Calma 0 930.3 -0.2 84
2019-10-11 06:00:00 10.5 0 Calma 0 Calma 0 930.2 -0.3 84
2019-10-11 05:00:00 10.9 0 Calma 0 Calma 0 930.3 -0.3 84
2019-10-11 04:00:00 11.2 0 Calma 0 Calma 0 930.5 -0.3 80
2019-10-11 03:00:00 11.6 0 Calma 0 Calma 0 930.5 -0.4 80
2019-10-11 02:00:00 12.2 0 Calma 0 Calma 0 930.6 -0.1 80
2019-10-11 01:00:00 12.8 0 Calma 5 Este 0 930.8 0.4 79
2019-10-11 00:00:00 13.8 0 Calma 4 Este 0 930.9 0.8 73
2019-10-10 23:00:00 14.8 0 Calma 3 Este 0 930.7 0.9 71
2019-10-10 22:00:00 16.4 0 Calma 4 Este 0 930.4 0.7 65
2019-10-10 21:00:00 18 0 Calma 3 Este 0 930.1 0.5 53
2019-10-10 20:00:00 21.2 0 Calma 9 Este 0 929.8 -0.3 43
2019-10-10 19:00:00 25 4 Este 10 Este 0 929.7 -0.8 35
2019-10-10 18:00:00 25.7 3 Este 15 Nordeste 0 929.6 -1.3 34
2019-10-10 17:00:00 25.1 4 Este 13 Nordeste 0 930.1 -1.6 36
2019-10-10 16:00:00 24.4 6 Nordeste 18 Nordeste 0 930.5 -1.6 37
2019-10-10 15:00:00 23.9 5 Nordeste 19 Nordeste 0 930.9 -1.6 39
2019-10-10 14:00:00 22.1 6 Nordeste 24 Nordeste 0 931.7 -1.2 44
2019-10-10 13:00:00 19.5 6 Este 17 Este 0 932.1 -0.6 50
2019-10-10 12:00:00 17 6 Este 17 Este 0 932.5 0.4 61
2019-10-10 11:00:00 13.8 6 Este 16 Nordeste 0 932.9 1 69
2019-10-10 10:00:00 11.4 8 Nordeste 20 Nordeste 0 932.7 1.3 76
2019-10-10 09:00:00 8.9 5 Este 11 Este 0 932.1 0.6 82
2019-10-10 08:00:00 9.2 6 Nordeste 13 Nordeste 0 931.9 0.7 80
2019-10-10 07:00:00 9.8 6 Este 13 Este 0 931.4 0.1 78
2019-10-10 06:00:00 10.3 6 Nordeste 19 Nordeste 0 931.5 0.2 76
2019-10-10 05:00:00 11.2 5 Nordeste 17 Nordeste 0 931.2 -0.2 73
2019-10-10 04:00:00 12 4 Nordeste 17 Este 0 931.3 -0.1 71
2019-10-10 03:00:00 12.8 9 Nordeste 16 Este 0 931.3 0 66
2019-10-10 02:00:00 13.2 6 Nordeste 15 Nordeste 0 931.4 0.4 63
2019-10-10 01:00:00 14 6 Este 13 Este 0 931.4 0.5 58
2019-10-10 00:00:00 15.7 4 Este 17 Nordeste 0 931.3 0.7 51
2019-10-09 23:00:00 17.1 6 Nordeste 19 Nordeste 0 931 1.1 43
2019-10-09 22:00:00 18.5 3 Noroeste 13 Nordeste 0 930.9 1.3 38
2019-10-09 21:00:00 19.4 5 Noroeste 12 Noroeste 0 930.6 1.4 35
2019-10-09 20:00:00 20.9 3 Noroeste 16 Noroeste 0 929.9 0.3 31
2019-10-09 19:00:00 22.4 4 Norte 18 Noroeste 0 929.6 -0.3 30
2019-10-09 18:00:00 23.4 3 Noroeste 20 Este 0 929.2 -1 32
2019-10-09 17:00:00 23.8 3 Norte 17 Nordeste 0 929.6 -1 35
2019-10-09 16:00:00 23.1 4 Norte 17 Nordeste 0 929.9 -1.1 39
2019-10-09 15:00:00 22.7 6 Nordeste 17 Nordeste 0 930.2 -1.2 41
2019-10-09 14:00:00 20.8 3 Norte 17 Nordeste 0 930.6 -0.8 47
2019-10-09 13:00:00 21 5 Este 16 Este 0 931 -0.6 53
2019-10-09 12:00:00 19.3 5 Este 18 Este 0 931.4 0.3 63
2019-10-09 11:00:00 16.8 5 Este 16 Nordeste 0 931.4 1.1 72
2019-10-09 10:00:00 15.3 4 Nordeste 14 Noroeste 0 931.6 1 82
2019-10-09 09:00:00 14.8 5 Sudoeste 10 Oeste 0 931.1 1.1 85
2019-10-09 08:00:00 15.3 0 Calma 13 Oeste 0 930.3 0.5 83
2019-10-09 07:00:00 16.3 5 Oeste 16 Oeste 0 930.6 1 85
2019-10-09 06:00:00 16.8 5 Oeste 9 Oeste 0 930 0 88
2019-10-09 05:00:00 16.1 2 Sudoeste 7 Sudeste 0 929.8 -0.1 87
2019-10-09 04:00:00 15.9 4 Oeste 13 Oeste 0 929.6 -0.3 85
2019-10-09 03:00:00 16.1 5 Oeste 14 Noroeste 0 930 0 82
2019-10-09 02:00:00 17.6 10 Oeste 19 Oeste 0 929.9 0.4 77
2019-10-09 01:00:00 18.5 8 Oeste 13 Oeste 0 929.9 0.8 72
2019-10-09 00:00:00 19 4 Oeste 9 Sudoeste 0 930 0.9 65
2019-10-08 23:00:00 19.9 4 Oeste 8 Oeste 0 929.5 0.7 60
2019-10-08 22:00:00 20.9 4 Oeste 8 Oeste 0 929.1 0.9 54
2019-10-08 21:00:00 22.8 5 Oeste 16 Oeste 0 929.1 1 48
2019-10-08 20:00:00 24.9 6 Oeste 22 Oeste 0 928.8 0.5 42
2019-10-08 19:00:00 27.6 9 Oeste 24 Oeste 0 928.2 -0.6 37
2019-10-08 18:00:00 28.6 10 Oeste 24 Oeste 0 928.1 -1.1 36
2019-10-08 17:00:00 28.9 10 Oeste 28 Oeste 0 928.3 -1.4 35
2019-10-08 16:00:00 29.1 10 Sudoeste 23 Sudoeste 0 928.8 -1.7 35
2019-10-08 15:00:00 28.5 10 Sudoeste 24 Sudoeste 0 929.2 -1.9 33
2019-10-08 14:00:00 27.9 8 Sudoeste 18 Oeste 0 929.7 -1.8 34
2019-10-08 13:00:00 26.2 0 Calma 8 Sudeste 0 930.5 -0.9 39
2019-10-08 12:00:00 23.2 2 Sur 6 Sudoeste 0 931.1 -0.1 45
2019-10-08 11:00:00 18.7 0 Calma 4 Sudeste 0 931.5 0.3 54
2019-10-08 10:00:00 14.8 3 Este 4 Este 0 931.4 0.6 70
2019-10-08 09:00:00 10.6 3 Este 7 Este 0 931.2 0.6 83
2019-10-08 08:00:00 10.6 4 Este 6 Este 0 931.2 0.2 88
2019-10-08 07:00:00 11.1 0 Calma 5 Este 0 930.8 -0.1 84
2019-10-08 06:00:00 11.5 0 Calma 4 Este 0 930.6 -0.6 81
2019-10-08 05:00:00 11.9 0 Calma 7 Este 0 931 -0.3 80
2019-10-08 04:00:00 12.4 2 Este 5 Este 0 930.9 -0.8 79
2019-10-08 03:00:00 13 2 Este 4 Sudeste 0 931.2 -0.7 74
2019-10-08 02:00:00 13.9 0 Calma 5 Este 0 931.3 -0.4 73
2019-10-08 01:00:00 15 0 Calma 5 Oeste 0 931.7 0.2 72
2019-10-08 00:00:00 15.8 0 Calma 3 Nordeste 0 931.9 1.1 64
2019-10-07 23:00:00 17 0 Calma 4 Este 0 931.7 1 61
2019-10-07 22:00:00 18.5 0 Calma 5 Este 0 931.5 1 49
2019-10-07 21:00:00 20.7 4 Este 7 Nordeste 0 930.8 0.1 41
2019-10-07 20:00:00 24.2 3 Este 10 Este 0 930.7 -0.3 31
2019-10-07 19:00:00 28.2 4 Este 10 Sudeste 0 930.5 -0.8 27
2019-10-07 18:00:00 28.2 0 Calma 11 Este 0 930.7 -0.9 26
2019-10-07 17:00:00 28.2 0 Calma 9 Nordeste 0 931 -1.5 27
2019-10-07 16:00:00 27.6 6 Sudeste 11 Sudeste 0 931.3 -1.6 29
2019-10-07 15:00:00 26.6 3 Sudeste 16 Sudeste 0 931.6 -1.6 32
2019-10-07 14:00:00 25.7 4 Sudeste 13 Sudeste 0 932.5 -0.9 34
2019-10-07 13:00:00 23.5 4 Sudeste 11 Este 0 932.9 -0.4 42
2019-10-07 12:00:00 20.4 4 Sudeste 8 Este 0 933.2 -0.2 52
2019-10-07 11:00:00 16.8 2 Sudeste 5 Este 0 933.4 0.8 61
2019-10-07 10:00:00 13.5 2 Sudeste 5 Sudeste 0 933.3 1.4 73
2019-10-07 09:00:00 9.9 3 Este 9 Este 0 933.4 1.5 85
2019-10-07 08:00:00 9.8 4 Este 7 Este 0 932.6 0.5 87
2019-10-07 07:00:00 10.7 0 Calma 3 Este 0 931.9 -0.5 87
2019-10-07 06:00:00 10.9 0 Calma 5 Este 0 931.9 -0.8 82
2019-10-07 05:00:00 11.2 2 Este 6 Nordeste 0 932.1 -0.6 81
2019-10-07 04:00:00 11.7 2 Este 8 Este 0 932.4 -0.5 76
2019-10-07 03:00:00 12.7 2 Este 6 Este 0 932.7 -0.3 73
2019-10-07 02:00:00 13.4 0 Calma 4 Sudoeste 0 932.7 0.1 72
2019-10-07 01:00:00 15 3 Oeste 5 Oeste 0 932.9 0.5 61
2019-10-07 00:00:00 15.4 0 Calma 3 Oeste 0 933 1.2 60
2019-10-06 23:00:00 16.9 0 Calma 8 Oeste 0 932.6 1.2 48
2019-10-06 22:00:00 18.9 5 Oeste 14 Oeste 0 932.4 1.2 43
2019-10-06 21:00:00 21.5 6 Oeste 13 Oeste 0 931.8 0.5 37
2019-10-06 20:00:00 23.1 4 Oeste 14 Noroeste 0 931.4 0.2 34
2019-10-06 19:00:00 25.4 7 Oeste 15 Norte 0 931.2 -0.4 32
2019-10-06 18:00:00 26 6 Oeste 13 Oeste 0 931.3 -1 33
2019-10-06 17:00:00 25.2 4 Sudoeste 11 Sur 0 931.2 -1.5 34
2019-10-06 16:00:00 25 5 Sudoeste 12 Noroeste 0 931.6 -1.7 36
2019-10-06 15:00:00 24.3 3 Sudoeste 13 Sudeste 0 932.3 -1.5 40
2019-10-06 14:00:00 22.8 5 Sudeste 12 Nordeste 0 932.7 -0.7 46
2019-10-06 13:00:00 20.2 3 Nordeste 12 Norte 0 933.3 0.4 53
2019-10-06 12:00:00 17.4 3 Norte 13 Noroeste 0 933.8 1.6 63
2019-10-06 11:00:00 14.9 0 Calma 5 Sudeste 0 933.4 1.2 74
2019-10-06 10:00:00 11.5 3 Este 6 Este 0 932.9 1.4 84
2019-10-06 09:00:00 8.4 3 Este 6 Este 0 932.2 1 92
2019-10-06 08:00:00 8.7 0 Calma 7 Este 0 932.2 1 93
2019-10-06 07:00:00 9.2 0 Calma 5 Este 0 931.5 0.5 90
2019-10-06 06:00:00 9.9 3 Este 8 Este 0 931.2 0.1 88
2019-10-06 05:00:00 10.4 0 Calma 6 Este 0 931.2 0.3 85
2019-10-06 04:00:00 10.9 3 Este 5 Este 0 931 0.2 85
2019-10-06 03:00:00 11.9 0 Calma 6 Este 0 931.1 0 77
2019-10-06 02:00:00 12.8 0 Calma 6 Oeste 0 930.9 0.3 74
2019-10-06 01:00:00 13.7 0 Calma 7 Oeste 0 930.8 1.1 67
2019-10-06 00:00:00 15.1 4 Oeste 10 Oeste 0 931.1 1.5 61
2019-10-05 23:00:00 16.1 5 Oeste 9 Oeste 0 930.6 1.5 52
2019-10-05 22:00:00 17.1 3 Sudoeste 12 Oeste 0 929.7 1 46
2019-10-05 21:00:00 19 6 Oeste 13 Sudoeste 0 929.6 1.5 42
2019-10-05 20:00:00 21.5 8 Oeste 18 Oeste 0 929.1 1 36
2019-10-05 19:00:00 24.1 9 Oeste 23 Sudoeste 0 928.7 0.4 32
2019-10-05 18:00:00 25 11 Sudoeste 23 Sudoeste 0 928.1 -0.6 32
2019-10-05 17:00:00 25.6 9 Sudoeste 23 Sudoeste 0 928.1 -1.3 36
2019-10-05 16:00:00 25.7 9 Sudoeste 22 Sudoeste 0 928.3 -1.4 39
2019-10-05 15:00:00 24.1 7 Sudoeste 21 Oeste 0 928.7 -1.1 43
2019-10-05 14:00:00 23.2 2 Oeste 12 Sudoeste 0 929.4 0.2 51
2019-10-05 13:00:00 21.8 3 Sur 9 Sudoeste 0 929.7 0 56
2019-10-05 12:00:00 19.2 3 Sudeste 7 Sur 0 929.8 0.6 66
2019-10-05 11:00:00 15.5 2 Sur 7 Sudoeste 0 929.2 0.5 77
2019-10-05 10:00:00 13.2 2 Sudeste 7 Sudeste 0 929.7 1.1 85
2019-10-05 09:00:00 9.8 0 Calma 4 Este 0 929.2 0.6 96
2019-10-05 08:00:00 9.6 0 Calma 7 Este 0 928.7 0.1 95
2019-10-05 07:00:00 10.3 0 Calma 5 Este 0 928.6 -0.2 93
2019-10-05 06:00:00 10.8 2 Este 5 Este 0 928.6 -0.3 90
2019-10-05 05:00:00 11.7 0 Calma 2 Este 0 928.6 -0.5 91
2019-10-05 04:00:00 12 0 Calma 0 Calma 0 928.8 -0.3 90
2019-10-05 03:00:00 12.6 0 Calma 6 Este 0 928.9 -0.2 85
2019-10-05 02:00:00 13.4 3 Este 6 Este 0 929.1 0.1 81
2019-10-05 01:00:00 14.7 3 Oeste 7 Oeste 0 929.1 0.5 73
2019-10-05 00:00:00 15.2 0 Calma 4 Oeste 0 929.1 0.8 75
2019-10-04 23:00:00 16.7 2 Oeste 5 Oeste 0 929 1.1 66
2019-10-04 22:00:00 17.9 3 Oeste 5 Oeste 0 928.6 1.1 60
2019-10-04 21:00:00 19.8 3 Sudoeste 13 Oeste 0 928.3 0.7 53
2019-10-04 20:00:00 22.3 7 Oeste 17 Oeste 0 927.9 -0.1 45
2019-10-04 19:00:00 24.9 6 Sudoeste 18 Sur 0 927.5 -1.1 41
2019-10-04 18:00:00 25.2 8 Oeste 19 Noroeste 0 927.6 -2.3 41
2019-10-04 17:00:00 25.3 7 Oeste 20 Oeste 0 928 -2.9 44
2019-10-04 16:00:00 23.9 7 Oeste 20 Sudoeste 0 928.6 -2.9 48
2019-10-04 15:00:00 22.2 4 Oeste 11 Sudoeste 0 929.9 -1.3 58
2019-10-04 14:00:00 20.4 0 Calma 13 Oeste 0 930.9 -0.2 70
2019-10-04 13:00:00 17.7 8 Sudoeste 15 Sudoeste 0 931.5 0.4 82
2019-10-04 12:00:00 16.9 5 Oeste 15 Oeste 0 931.2 0.4 87
2019-10-04 11:00:00 15 6 Oeste 10 Oeste 0 931.1 0.9 94
2019-10-04 10:00:00 13.9 0 Calma 4 Este 0 931.1 1.1 91
2019-10-04 09:00:00 12.6 4 Este 8 Este 0 930.8 0.8 89
2019-10-04 08:00:00 12.4 0 Calma 10 Sudoeste 0 930.2 -0.1 91
2019-10-04 07:00:00 12.8 0 Calma 8 Sudoeste 0 930 -0.7 91
2019-10-04 06:00:00 12.2 0 Calma 5 Este 0 930 -1.1 89
2019-10-04 05:00:00 12.5 0 Calma 4 Este 0 930.3 -0.9 89
2019-10-04 04:00:00 12.9 0 Calma 9 Nordeste 0 930.7 -0.8 83
2019-10-04 03:00:00 14.5 0 Calma 6 Sudoeste 0 931.1 -0.5 79
2019-10-04 02:00:00 15 3 Sudoeste 6 Noroeste 0 931.2 0.1 73
2019-10-04 01:00:00 15.6 2 Sur 6 Oeste 0 931.5 0.9 64
2019-10-04 00:00:00 16.9 4 Oeste 16 Oeste 0 931.6 1.3 53
2019-10-03 23:00:00 17.1 4 Oeste 9 Oeste 0 931.1 1.2 49
2019-10-03 22:00:00 18.7 4 Oeste 7 Oeste 0 930.6 0.9 41
2019-10-03 21:00:00 20.6 4 Oeste 9 Oeste 0 930.3 0.4 36
2019-10-03 20:00:00 23 6 Oeste 15 Oeste 0 929.9 -0.4 32
2019-10-03 19:00:00 25.6 6 Oeste 17 Oeste 0 929.7 -1 28
2019-10-03 18:00:00 26.2 9 Oeste 19 Oeste 0 929.9 -1 27
2019-10-03 17:00:00 26 9 Oeste 22 Oeste 0 930.3 -1.3 32
2019-10-03 16:00:00 25.4 10 Sudoeste 21 Sudoeste 0 930.7 -1.3 34
2019-10-03 15:00:00 24.6 7 Sudoeste 20 Sur 0 930.9 -1.1 36
2019-10-03 14:00:00 22.7 7 Oeste 15 Noroeste 0 931.6 -1 39
2019-10-03 13:00:00 21.1 3 Sur 10 Sur 0 932 -0.4 45
2019-10-03 12:00:00 18.8 2 Sudeste 7 Sur 0 932 0 54
2019-10-03 11:00:00 15.5 2 Sur 6 Sudeste 0 932.6 0.9 63
2019-10-03 10:00:00 11.6 0 Calma 6 Este 0 932.4 0.8 76
2019-10-03 09:00:00 8.7 4 Este 5 Este 0 932 0.6 83
2019-10-03 08:00:00 8.2 0 Calma 6 Este 0 931.7 0.7 83
2019-10-03 07:00:00 8.8 0 Calma 6 Oeste 0 931.6 0.7 82
2019-10-03 06:00:00 9.4 3 Oeste 7 Oeste 0 931.4 0.2 83
2019-10-03 05:00:00 9.8 0 Calma 12 Nordeste 0 931 -0.2 84
2019-10-03 04:00:00 10.3 0 Calma 4 Este 0 930.9 -0.8 81
2019-10-03 03:00:00 10.8 2 Sudeste 6 Este 0 931.2 -0.6 77
2019-10-03 02:00:00 11.1 3 Este 6 Este 0 931.2 -0.5 77
2019-10-03 01:00:00 12 4 Este 5 Este 0 931.7 0.2 80
2019-10-03 00:00:00 12.9 3 Este 4 Este 0 931.8 0.6 74
2019-10-02 23:00:00 13.9 2 Este 4 Este 0 931.7 0.7 72
2019-10-02 22:00:00 15.5 0 Calma 5 Este 0 931.5 0.8 60
2019-10-02 21:00:00 17.1 3 Este 8 Nordeste 0 931.2 0.9 51
2019-10-02 20:00:00 19.8 0 Calma 8 Norte 0 931 0.3 38
2019-10-02 19:00:00 21.5 3 Noroeste 11 Noroeste 0 930.7 -0.1 36
2019-10-02 18:00:00 22.1 3 Oeste 15 Nordeste 0 930.3 -0.7 36
2019-10-02 17:00:00 21.5 4 Nordeste 17 Nordeste 0 930.7 -0.7 36
2019-10-02 16:00:00 21.3 3 Este 16 Sudeste 0 930.8 -0.8 38
2019-10-02 15:00:00 20.6 2 Sudeste 15 Nordeste 0 931 -0.8 42
2019-10-02 14:00:00 17.9 3 Noroeste 15 Nordeste 0 931.4 0 49
2019-10-02 13:00:00 16.6 3 Nordeste 14 Noroeste 0 931.6 0.1 53
2019-10-02 12:00:00 15.5 2 Nordeste 13 Nordeste 0 931.8 0.9 61
2019-10-02 11:00:00 13.3 6 Sudoeste 12 Oeste 0 931.4 0.5 75
2019-10-02 10:00:00 12.1 4 Sudoeste 8 Sur 0 931.5 1.2 85
2019-10-02 09:00:00 9.5 5 Sudeste 8 Sudeste 0 930.9 0.9 93
2019-10-02 08:00:00 9.9 3 Oeste 10 Sudoeste 0 930.9 1.2 92
2019-10-02 07:00:00 10.3 4 Sudoeste 12 Sudoeste 0 930.3 0.6 91
2019-10-02 06:00:00 10.8 5 Sudoeste 21 Sudoeste 0 930 0 89
2019-10-02 05:00:00 11.6 7 Sudoeste 17 Sudoeste 0 929.7 -0.5 86
2019-10-02 04:00:00 12.2 7 Oeste 14 Sudoeste 0 929.7 -0.5 84
2019-10-02 03:00:00 12.7 8 Sudoeste 14 Sudoeste 0 930 0.1 81
2019-10-02 02:00:00 13.6 5 Sudoeste 18 Oeste 0 930.2 0.9 76
2019-10-02 01:00:00 14.5 5 Sudoeste 16 Oeste 0 930.2 1.3 70
2019-10-02 00:00:00 15.6 6 Oeste 19 Oeste 0 929.9 2 64
2019-10-01 23:00:00 16.8 13 Oeste 24 Noroeste 0 929.3 1.9 57
2019-10-01 22:00:00 17.5 8 Oeste 15 Oeste 0 928.9 1.5 52
2019-10-01 21:00:00 19 7 Oeste 18 Sudoeste 0 927.9 0.6 49
2019-10-01 20:00:00 20.8 9 Oeste 27 Oeste 0 927.4 -0.1 45
2019-10-01 19:00:00 22.2 14 Oeste 31 Sudoeste 0 927.4 -0.3 42
2019-10-01 18:00:00 22.6 14 Oeste 31 Sudoeste 0 927.3 -0.9 43
2019-10-01 17:00:00 22.7 11 Sudoeste 31 Sudoeste 0 927.5 -1.5 45
2019-10-01 16:00:00 22 10 Sudoeste 30 Sudoeste 0 927.7 -1.3 48
2019-10-01 15:00:00 21.3 12 Sudoeste 27 Sudoeste 0 928.2 -1.4 53
2019-10-01 14:00:00 19.2 13 Oeste 27 Oeste 0 929 -0.3 63
2019-10-01 13:00:00 18.8 11 Oeste 24 Sudoeste 0 929 0.5 66
2019-10-01 12:00:00 19 10 Oeste 24 Sudoeste 0 929.6 2 65
2019-10-01 11:00:00 17.5 5 Sudoeste 25 Sudoeste 0 929.3 2.1 71
2019-10-01 10:00:00 15.5 11 Oeste 28 Oeste 0 928.5 1.8 78
2019-10-01 09:00:00 15.5 11 Oeste 26 Sudoeste 0 927.6 0.9 83
2019-10-01 08:00:00 15.7 9 Oeste 22 Noroeste 0 927.2 0.8 85
2019-10-01 07:00:00 16.1 6 Oeste 20 Sudoeste 0 926.7 0.2 89
2019-10-01 06:00:00 16.1 8 Oeste 24 Sudoeste 0 926.7 -0.4 91
2019-10-01 05:00:00 16.3 4 Oeste 9 Oeste 0 926.4 -1 83
2019-10-01 04:00:00 16.5 3 Sur 9 Este 0 926.5 -0.9 78
2019-10-01 03:00:00 17.5 0 Calma 10 Sudoeste 0 927.1 -0.4 73
2019-10-01 02:00:00 17.8 6 Oeste 12 Oeste 0 927.4 0 61
2019-10-01 01:00:00 18.6 6 Oeste 10 Oeste 0 927.4 0.2 48
2019-10-01 00:00:00 20.5 5 Oeste 14 Oeste 0 927.5 0.5 40
2019-09-30 23:00:00 21.1 6 Sudoeste 21 Sur 0 927.4 0.6 35
2019-09-30 22:00:00 21.8 9 Sur 20 Sur 0 927.2 0.6 33
2019-09-30 21:00:00 23 11 Sur 22 Sudoeste 0 927 0.4 32
2019-09-30 20:00:00 25.3 10 Sur 24 Sur 0 926.8 -0.5 32
2019-09-30 19:00:00 28.1 10 Sudoeste 22 Sudoeste 0 926.6 -1.1 31
2019-09-30 18:00:00 28.4 10 Sudoeste 24 Sudoeste 0 926.6 -1.8 32
2019-09-30 17:00:00 28.9 9 Sudoeste 25 Sudoeste 0 927.3 -1.9 30
2019-09-30 16:00:00 28.8 8 Sudoeste 24 Sudoeste 0 927.7 -2.2 31
2019-09-30 15:00:00 28.4 8 Sudoeste 23 Oeste 0 928.4 -2 32
2019-09-30 14:00:00 26.9 3 Sur 8 Oeste 0 929.2 -1.4 42
2019-09-30 13:00:00 24.1 0 Calma 10 Este 0 929.9 -0.8 52
2019-09-30 12:00:00 21.5 4 Este 9 Este 0 930.4 0 65
2019-09-30 11:00:00 18.6 4 Este 8 Sudeste 0 930.6 0.1 72
2019-09-30 10:00:00 14.5 2 Este 8 Este 0 930.7 0.4 78
2019-09-30 09:00:00 11.4 4 Este 6 Nordeste 0 930.4 -0.1 88
2019-09-30 08:00:00 11.5 3 Este 6 Este 0 930.5 -0.1 89
2019-09-30 07:00:00 12 0 Calma 6 Este 0 930.3 -0.8 88
2019-09-30 06:00:00 12.3 3 Este 7 Este 0 930.5 -0.9 85
2019-09-30 05:00:00 13.2 2 Este 7 Este 0 930.6 -0.7 85
2019-09-30 04:00:00 13.7 0 Calma 8 Nordeste 0 931.1 -0.2 78
2019-09-30 03:00:00 14.6 5 Este 8 Este 0 931.4 0.1 76
2019-09-30 02:00:00 15.6 0 Calma 5 Oeste 0 931.3 0.2 71
2019-09-30 01:00:00 17.2 3 Oeste 8 Oeste 0 931.3 0.9 61
2019-09-30 00:00:00 18.1 4 Oeste 9 Sudoeste 0 931.3 1.3 53
2019-09-29 23:00:00 18.6 2 Sudoeste 8 Sudoeste 0 931.1 1.4 46
2019-09-29 22:00:00 20.1 4 Oeste 6 Sudoeste 0 930.4 0.9 41
2019-09-29 21:00:00 22.2 4 Sudoeste 12 Oeste 0 930 0.4 37
2019-09-29 20:00:00 24.9 6 Oeste 15 Sudoeste 0 929.7 -0.2 32
2019-09-29 19:00:00 27.4 9 Sudoeste 19 Sudoeste 0 929.5 -1 28
2019-09-29 18:00:00 27.8 7 Oeste 22 Noroeste 0 929.6 -1.3 27
2019-09-29 17:00:00 28.1 6 Sudoeste 21 Oeste 0 929.9 -1.7 23
2019-09-29 16:00:00 27.6 6 Oeste 21 Oeste 0 930.5 -1.2 22
2019-09-29 15:00:00 26.9 10 Oeste 24 Sudoeste 0 930.9 -1 27
2019-09-29 14:00:00 25.6 10 Oeste 27 Sudoeste 0 931.6 0 32
2019-09-29 13:00:00 24.3 7 Oeste 19 Oeste 0 931.7 0.5 41
2019-09-29 12:00:00 21.4 6 Oeste 13 Oeste 0 931.9 0.9 53
2019-09-29 11:00:00 18.8 0 Calma 5 Sudeste 0 931.6 0.9 65
2019-09-29 10:00:00 14.2 4 Este 7 Este 0 931.2 0.7 73
2019-09-29 09:00:00 10.3 2 Este 6 Este 0 931 0.6 88
2019-09-29 08:00:00 9.9 2 Este 8 Este 0 930.7 0 87
2019-09-29 07:00:00 10.6 4 Este 7 Este 0 930.5 -0.3 87
2019-09-29 06:00:00 11.3 0 Calma 6 Este 0 930.4 -0.7 83
2019-09-29 05:00:00 11.8 4 Este 7 Este 0 930.7 -0.2 84
2019-09-29 04:00:00 12.6 0 Calma 6 Este 0 930.8 -0.2 83
2019-09-29 03:00:00 13.2 0 Calma 6 Noroeste 0 931.1 0.1 81
2019-09-29 02:00:00 13.4 5 Este 8 Este 0 930.9 -0.2 79
2019-09-29 01:00:00 14.8 2 Este 6 Este 0 931 0.5 70
2019-09-29 00:00:00 16.1 0 Calma 4 Sudoeste 0 931 0.7 59
2019-09-28 23:00:00 17.3 0 Calma 6 Oeste 0 931.1 1.4 49
2019-09-28 22:00:00 19.1 0 Calma 5 Oeste 0 930.5 0.6 44
2019-09-28 21:00:00 21.1 3 Sudoeste 6 Sudoeste 0 930.3 0.3 39
2019-09-28 20:00:00 25 5 Oeste 12 Oeste 0 929.7 -0.7 27
2019-09-28 19:00:00 28.2 4 Oeste 15 Oeste 0 929.9 -1.2 23
2019-09-28 18:00:00 28.8 5 Sur 13 Sur 0 930 -1.6 24
2019-09-28 17:00:00 28 3 Nordeste 11 Nordeste 0 930.4 -2.1 31
2019-09-28 16:00:00 25.7 3 Noroeste 10 Oeste 0 931.1 -2 34
2019-09-28 15:00:00 25.6 4 Sur 10 Sur 0 931.6 -1.9 37
2019-09-28 14:00:00 24.2 4 Sudeste 10 Sudeste 0 932.5 -1 44
2019-09-28 13:00:00 21.4 3 Este 14 Nordeste 0 933.1 0 54
2019-09-28 12:00:00 19 3 Este 12 Sudeste 0 933.5 0.7 65
2019-09-28 11:00:00 16.4 4 Este 10 Este 0 933.5 1.1 74
2019-09-28 10:00:00 13.2 4 Este 10 Este 0 933.1 0.9 84
2019-09-28 09:00:00 10 3 Este 6 Este 0 932.8 0.5 96
2019-09-28 08:00:00 10.1 0 Calma 6 Este 0 932.4 -0.1 96
2019-09-28 07:00:00 10.6 3 Este 5 Este 0 932.2 -0.4 94
2019-09-28 06:00:00 11 3 Este 6 Este 0 932.3 -0.7 93
2019-09-28 05:00:00 11.7 0 Calma 6 Este 0 932.5 -0.8 92
2019-09-28 04:00:00 12.5 0 Calma 4 Sudeste 0 932.6 -0.5 89
2019-09-28 03:00:00 13.3 0 Calma 6 Este 0 933 -0.1 85
2019-09-28 02:00:00 14.1 0 Calma 6 Este 0 933.3 0.7 80
2019-09-28 01:00:00 15.1 4 Sudoeste 7 Sudoeste 0 933.1 0.9 78
2019-09-28 00:00:00 16.4 4 Sudoeste 13 Oeste 0 933.1 1.5 73
2019-09-27 23:00:00 17.3 4 Sudoeste 11 Oeste 0 932.6 1.1 68
2019-09-27 22:00:00 18.8 6 Oeste 12 Oeste 0 932.2 1.1 58
2019-09-27 21:00:00 20.7 6 Oeste 15 Oeste 0 931.6 0.7 51
2019-09-27 20:00:00 22.3 10 Oeste 21 Oeste 0 931.5 0.6 44
2019-09-27 19:00:00 24.4 9 Oeste 24 Oeste 0 931.1 -0.2 36
2019-09-27 18:00:00 25.2 10 Oeste 24 Oeste 0 930.9 -0.9 34
2019-09-27 17:00:00 25.5 11 Oeste 25 Sudoeste 0 930.9 -1.5 32
2019-09-27 16:00:00 25.2 7 Oeste 24 Sudoeste 0 931.3 -1.4 33
2019-09-27 15:00:00 24.4 9 Oeste 21 Sudoeste 0 931.8 -1.3 35
2019-09-27 14:00:00 22.9 8 Sudoeste 18 Sudoeste 0 932.4 -0.6 41
2019-09-27 13:00:00 21.6 5 Oeste 17 Sudoeste 0 932.7 -0.2 47
2019-09-27 12:00:00 19.6 4 Oeste 10 Oeste 0 933.1 0.5 53
2019-09-27 11:00:00 17.2 4 Sudoeste 11 Oeste 0 933 0.8 65
2019-09-27 10:00:00 13.7 0 Calma 6 Sudeste 0 932.9 0.7 77
2019-09-27 09:00:00 9.6 2 Este 7 Este 0 932.6 0.3 90
2019-09-27 08:00:00 9.6 0 Calma 6 Este 0 932.2 0 88
2019-09-27 07:00:00 10.2 3 Este 6 Este 0 932.2 -0.1 84
2019-09-27 06:00:00 10.7 0 Calma 4 Sudeste 0 932.3 -0.3 83
2019-09-27 05:00:00 11.3 2 Este 4 Este 0 932.2 0 84
2019-09-27 04:00:00 11.7 0 Calma 6 Este 0 932.3 0 78
2019-09-27 03:00:00 12.3 2 Este 6 Este 0 932.6 0.3 69
2019-09-27 02:00:00 13.3 0 Calma 6 Oeste 0 932.2 0.1 62
2019-09-27 01:00:00 15.1 5 Oeste 7 Oeste 0 932.3 0.6 50
2019-09-27 00:00:00 15.2 3 Este 6 Este 0 932.3 1.2 50
2019-09-26 23:00:00 16.7 4 Sudoeste 6 Sudoeste 0 932.1 1.5 40
2019-09-26 22:00:00 18 4 Sudoeste 8 Oeste 0 931.7 1.3 35
2019-09-26 21:00:00 19.9 4 Sudoeste 9 Oeste 0 931.1 0.9 32
2019-09-26 20:00:00 23.4 7 Oeste 17 Oeste 0 930.6 0.1 26
2019-09-26 19:00:00 25.8 10 Oeste 22 Oeste 0 930.4 -0.4 27
2019-09-26 18:00:00 26.4 9 Oeste 30 Sudoeste 0 930.2 -0.7 26
2019-09-26 17:00:00 26.6 10 Oeste 25 Noroeste 0 930.5 -0.7 25
2019-09-26 16:00:00 26.2 13 Oeste 26 Oeste 0 930.8 -0.9 31
2019-09-26 15:00:00 25.7 10 Sudoeste 26 Sudoeste 0 930.9 -1.3 35
2019-09-26 14:00:00 24.2 7 Oeste 18 Sudoeste 0 931.2 -1 40
2019-09-26 13:00:00 21.5 5 Sudoeste 13 Oeste 0 931.7 -0.3 52
2019-09-26 12:00:00 19.3 4 Sudoeste 9 Noroeste 0 932.2 0.5 62
2019-09-26 11:00:00 17.3 3 Sur 8 Sudeste 0 932.2 0.5 70
2019-09-26 10:00:00 14.6 2 Este 6 Este 0 932 0.6 81
2019-09-26 09:00:00 11.2 3 Este 5 Este 0 931.7 0.3 92
2019-09-26 08:00:00 11.2 0 Calma -- -- 0 931.7 0.2 91
2019-09-26 07:00:00 11.4 0 Calma 4 Este 0 931.4 -0.4 89
2019-09-26 06:00:00 11.7 4 Este 5 Sudeste 0 931.4 -0.4 89
2019-09-26 05:00:00 12.1 0 Calma 3 Sur 0 931.5 -0.3 87
2019-09-26 04:00:00 12.7 0 Calma 5 Oeste 0 931.8 0.2 84
2019-09-26 03:00:00 13.6 2 Sudoeste 8 Oeste 0 931.8 0.2 78
2019-09-26 02:00:00 14.1 4 Oeste 8 Oeste 0 931.8 0.6 77
2019-09-26 01:00:00 14.6 3 Oeste 8 Sudoeste 0 931.6 0.8 74
2019-09-26 00:00:00 15.6 5 Oeste 8 Oeste 0 931.6 1 66
2019-09-25 23:00:00 16.2 2 Sudoeste 8 Oeste 0 931.2 1.1 63
2019-09-25 22:00:00 17.5 4 Oeste 12 Oeste 0 930.8 0.5 56
2019-09-25 21:00:00 19 5 Oeste 14 Oeste 0 930.6 0.3 50
2019-09-25 20:00:00 20.8 8 Oeste 16 Oeste 0 930.1 -0.3 46
2019-09-25 19:00:00 22.7 8 Oeste 18 Sudoeste 0 930.3 -0.7 42
2019-09-25 18:00:00 22.1 7 Oeste 16 Noroeste 0 930.3 -1.1 42
2019-09-25 17:00:00 22.3 3 Sudoeste 15 Noroeste 0 930.4 -1.5 42
2019-09-25 16:00:00 21 4 Oeste 15 Sudoeste 0 931 -1.5 44
2019-09-25 15:00:00 20.2 3 Sudoeste 13 Sudeste 0 931.4 -1.3 49
2019-09-25 14:00:00 18.9 3 Oeste 10 Sudeste 0 931.9 -0.8 54
2019-09-25 13:00:00 17.2 4 Sudoeste 12 Sur 0 932.5 0.4 58
2019-09-25 12:00:00 15.9 5 Sudeste 13 Oeste 0 932.7 1 65
2019-09-25 11:00:00 14.1 3 Oeste 17 Sudoeste 0 932.7 1.5 76
2019-09-25 10:00:00 13 3 Sudoeste 10 Sudoeste 0 932.1 0.8 81
2019-09-25 09:00:00 10.7 3 Sudoeste 9 Sudoeste 0 931.7 0.4 92
2019-09-25 08:00:00 10.5 6 Oeste 10 Oeste 0 931.2 0.2 92
2019-09-25 07:00:00 10.6 3 Sudoeste 8 Sur 0 931.3 0.1 92
2019-09-25 06:00:00 11.1 2 Sur 9 Oeste 0 931.3 -0.1 90
2019-09-25 05:00:00 11.8 6 Oeste 12 Oeste 0 931 -0.4 89
2019-09-25 04:00:00 12.3 4 Sudoeste 8 Sudoeste 0 931.2 -0.5 87
2019-09-25 03:00:00 12.6 2 Oeste 10 Oeste 0 931.4 -0.3 85
2019-09-25 02:00:00 13.4 4 Oeste 14 Oeste 0 931.4 0 81
2019-09-25 01:00:00 14 6 Oeste 12 Oeste 0 931.7 0.8 81
2019-09-25 00:00:00 14.8 3 Oeste 14 Sudoeste 0 931.7 1.4 79
2019-09-24 23:00:00 15.7 8 Sudoeste 16 Sudoeste 0 931.4 1.4 76
2019-09-24 22:00:00 16.8 6 Sudoeste 27 Sudoeste 0 930.9 1.1 70
2019-09-24 21:00:00 18.2 12 Oeste 26 Sudoeste 0 930.3 0.6 67
2019-09-24 20:00:00 19.8 14 Sudoeste 37 Sudoeste 0 930 -0.3 61
2019-09-24 19:00:00 21.5 12 Sudoeste 34 Sudoeste 0 929.8 -0.8 61
2019-09-24 18:00:00 21.3 15 Sudoeste 33 Sudoeste 0 929.7 -0.9 64
2019-09-24 17:00:00 19.6 9 Sudoeste 31 Sudoeste 0 930.3 -0.9 83
2019-09-24 16:00:00 19.7 13 Sudoeste 32 Sudoeste 0 930.6 -1.2 76
2019-09-24 15:00:00 21.4 10 Sudoeste 24 Oeste 0 930.6 -1.2 62
2019-09-24 14:00:00 20.7 12 Sudoeste 26 Sudoeste 0 931.2 -0.8 65
2019-09-24 13:00:00 19.8 11 Sudoeste 30 Sudoeste 0 931.8 0.4 66
2019-09-24 12:00:00 18.7 11 Sudoeste 22 Sudoeste 0 931.8 0.5 67
2019-09-24 11:00:00 15.5 5 Oeste 11 Oeste 0 932 0.8 79
2019-09-24 10:00:00 14.4 2 Oeste 13 Sudoeste 0 931.4 0.2 83
2019-09-24 09:00:00 13.3 4 Sudoeste 11 Oeste 0 931.3 0.2 90
2019-09-24 08:00:00 12.6 6 Sudoeste 14 Sudoeste 0 931.2 -0.2 92
2019-09-24 07:00:00 12.5 6 Oeste 13 Sudoeste 0 931.2 0 90
2019-09-24 06:00:00 12.7 6 Oeste 12 Oeste 0 931.1 -0.7 86
2019-09-24 05:00:00 13 6 Oeste 12 Oeste 0 931.4 -0.5 82
2019-09-24 04:00:00 13.1 2 Sudoeste 8 Sudoeste 0 931.2 -1.1 80
2019-09-24 03:00:00 13.7 3 Sudoeste 7 Sur 0 931.8 -0.4 77
2019-09-24 02:00:00 14.6 3 Sudoeste 9 Sudoeste 0 931.9 -0.4 71
2019-09-24 01:00:00 15.6 5 Oeste 10 Oeste 0 932.3 0.1 66
2019-09-24 00:00:00 16.5 4 Oeste 14 Sur 0 932.2 0.5 62
2019-09-23 23:00:00 17 7 Sur 18 Sur 0 932.3 1 60
2019-09-23 22:00:00 18.1 7 Sur 17 Sur 0 932.2 1 57
2019-09-23 21:00:00 20.2 4 Sur 12 Sudoeste 0 931.7 0.5 45
2019-09-23 20:00:00 21.9 5 Sudoeste 15 Oeste 0 931.3 0.3 41
2019-09-23 19:00:00 22.4 8 Oeste 24 Sudoeste 0 931.2 -0.4 38
2019-09-23 18:00:00 23.2 9 Sudoeste 24 Sudoeste 0 931.2 -0.7 34
2019-09-23 17:00:00 23.7 9 Sudoeste 21 Sudoeste 0 931 -1.4 32
2019-09-23 16:00:00 22.7 8 Oeste 19 Oeste 0 931.6 -1.4 35
2019-09-23 15:00:00 21.3 9 Sudoeste 21 Oeste 0 931.9 -1 40
2019-09-23 14:00:00 20.1 8 Sudoeste 20 Oeste 0 932.4 -0.1 47
2019-09-23 13:00:00 18.4 4 Sudoeste 18 Oeste 0 933 0.5 57
2019-09-23 12:00:00 16.6 2 Este 10 Sudeste 0 932.9 0.4 63
2019-09-23 11:00:00 15.5 5 Sudeste 10 Sudeste 0 932.5 0 73
2019-09-23 10:00:00 12.7 2 Sur 8 Este 0 932.5 0.7 86
2019-09-23 09:00:00 10.4 2 Este 7 Este 0 932.5 1.3 93
2019-09-23 08:00:00 10.1 0 Calma 6 Este 0 932.5 1.4 94
2019-09-23 07:00:00 10.2 0 Calma 6 Este 0 931.8 0.8 92
2019-09-23 06:00:00 10.8 4 Este 6 Este 0 931.2 0.2 91
2019-09-23 05:00:00 11.2 0 Calma 8 Oeste 0 931.1 0.6 89
2019-09-23 04:00:00 12 2 Este 8 Sudoeste 0 931 0.3 85
2019-09-23 03:00:00 12.7 3 Oeste 10 Oeste 0 931 0.5 79
2019-09-23 02:00:00 13 5 Oeste 12 Sudoeste 0 930.5 0.4 75
2019-09-23 01:00:00 13.6 4 Oeste 12 Oeste 0 930.7 0.9 71
2019-09-23 00:00:00 13.8 6 Oeste 11 Oeste 0 930.5 1.4 69
2019-09-22 23:00:00 13.2 0 Calma 3 Oeste 0 930.1 1.5 75
2019-09-22 22:00:00 14.5 3 Oeste 5 Oeste 0 929.8 1.5 61
2019-09-22 21:00:00 15.6 3 Oeste 12 Sudoeste 0 929.1 1.2 54
2019-09-22 20:00:00 17.7 6 Oeste 17 Oeste 0 928.6 0.9 45
2019-09-22 19:00:00 19.4 12 Oeste 25 Oeste 0 928.3 0.6 44
2019-09-22 18:00:00 19.5 6 Oeste 26 Oeste 0 927.9 0.1 46
2019-09-22 17:00:00 20.7 10 Oeste 27 Sudoeste 0 927.7 -0.2 40
2019-09-22 16:00:00 19.9 11 Oeste 32 Sudoeste 0 927.7 -0.5 44
2019-09-22 15:00:00 18.1 10 Oeste 25 Sudoeste 0 927.8 -0.1 53
2019-09-22 14:00:00 17.8 8 Oeste 23 Noroeste 0 927.9 0.2 61
2019-09-22 13:00:00 15.8 10 Oeste 20 Sudoeste 0 928.2 0.8 73
2019-09-22 12:00:00 15 4 Sudoeste 18 Oeste 0 927.9 1.2 81
2019-09-22 11:00:00 14.2 7 Oeste 15 Sudoeste 0 927.7 1.8 83
2019-09-22 10:00:00 13.1 0 Calma 9 Sudoeste 0 927.4 2.1 87
2019-09-22 09:00:00 11.5 0 Calma 10 Sudoeste 0 926.7 1.8 93
2019-09-22 08:00:00 11.3 0 Calma 4 Sur 0 925.9 1.1 93
2019-09-22 07:00:00 11.6 0 Calma 15 Oeste 0 925.3 0.7 93
2019-09-22 06:00:00 12 5 Oeste 17 Sudoeste 0 924.9 0.4 93
2019-09-22 05:00:00 12.2 8 Sudoeste 19 Sudoeste 0 924.8 0.9 94
2019-09-22 04:00:00 12.3 7 Oeste 20 Sudoeste 0.1 924.6 2 94
2019-09-22 03:00:00 12.2 7 Sudoeste 24 Oeste 0.1 924.5 1.9 94
2019-09-22 02:00:00 12.4 12 Oeste 32 Oeste 1.9 923.9 1.3 93
2019-09-22 01:00:00 16.6 7 Sudoeste 24 Sudoeste 4.6 922.6 0.2 95
2019-09-22 00:00:00 17.4 13 Sur 27 Sudoeste 0.2 922.6 0.1 88
2019-09-21 23:00:00 17.5 10 Sur 24 Sur 0 922.6 0.1 85
2019-09-21 22:00:00 17.3 11 Sur 26 Sur 0 922.4 -0.3 84
2019-09-21 21:00:00 17.1 9 Sudeste 33 Sudoeste 0 922.5 -0.5 83
2019-09-21 20:00:00 17.4 16 Sur 34 Sur 0 922.5 -0.6 81
2019-09-21 19:00:00 17.6 13 Sur 31 Sur 0 922.7 -0.5 82
2019-09-21 18:00:00 17.8 11 Sur 31 Sur 0.1 923 -0.5 84
2019-09-21 17:00:00 18 10 Sur 35 Sur 0 923.1 -0.7 82
2019-09-21 16:00:00 19.1 17 Sur 42 Sudeste 0 923.2 -1 73
2019-09-21 15:00:00 20.4 16 Sur 35 Sudeste 0 923.5 -0.8 69
2019-09-21 14:00:00 17.5 11 Sur 31 Sur 0 923.8 -0.4 78
2019-09-21 13:00:00 16.6 11 Sur 29 Sur 0.1 924.2 0 84
2019-09-21 12:00:00 16.5 12 Sur 25 Sudoeste 0 924.3 0.6 85
2019-09-21 11:00:00 15.8 10 Sur 28 Sur 0.4 924.2 0.7 85
2019-09-21 10:00:00 16.1 15 Sur 36 Sur 0 924.2 0.7 83
2019-09-21 09:00:00 15.6 5 Sudeste 14 Este 0 923.7 -0.4 84
2019-09-21 08:00:00 15 5 Sudeste 13 Este 0 923.5 -0.7 83
2019-09-21 07:00:00 15 4 Sudoeste 13 Sur 0 923.5 -1 81
2019-09-21 06:00:00 15.5 6 Sur 15 Sudoeste 0 924.1 -0.6 77
2019-09-21 05:00:00 15.4 9 Sur 18 Sudoeste 0 924.2 -0.3 77
2019-09-21 04:00:00 15.8 6 Sur 17 Sudeste 0 924.5 -0.5 76
2019-09-21 03:00:00 16.5 6 Sur 19 Sur 0 924.7 -0.3 73
2019-09-21 02:00:00 17 4 Sur 15 Sur 0 924.5 -0.3 77
2019-09-21 01:00:00 17.4 6 Sur 13 Sur 0 925 0.2 76
2019-09-21 00:00:00 17.9 7 Sur 16 Sur 0 925 0.4 73
2019-09-20 23:00:00 18.2 8 Sur 16 Sur 0 924.8 0.7 71
2019-09-20 22:00:00 18.5 5 Sur 15 Sudoeste 0 924.8 -- 69
2019-09-20 21:00:00 19.2 5 Sur 15 Sur 0 924.6 0.5 71
2019-09-20 20:00:00 19.8 4 Este 16 Sur 0.5 924.1 0 76
2019-09-20 19:00:00 -- 9 Sudeste 49 Noroeste 9.7 -- -- --
2019-09-20 18:00:00 22.1 9 Sudeste 33 Sudeste 1.5 924.1 -1.1 60
2019-09-20 17:00:00 25.1 7 Sudeste 21 Sur 0 924.1 -1.3 39
2019-09-20 16:00:00 25 4 Sur 20 Sur 0 924.7 -1.4 39
2019-09-20 15:00:00 24.8 10 Sur 27 Sur 0 925.2 -1.3 39
2019-09-20 14:00:00 25.7 11 Sudoeste 30 Sudoeste 0 925.4 -1.1 39
2019-09-20 13:00:00 24 4 Oeste 13 Sur 0 926.1 -0.3 44
2019-09-20 12:00:00 22.5 3 Este 8 Este 0 926.5 0.6 53
2019-09-20 11:00:00 20.6 0 Calma 8 Este 0 926.5 0.9 65
2019-09-20 10:00:00 17.8 0 Calma 6 Nordeste 0 926.4 0.8 81
2019-09-20 09:00:00 15.6 4 Este 8 Este 0 925.9 0.2 89
2019-09-20 08:00:00 15.2 3 Este 9 Nordeste 0 925.6 -0.5 88
2019-09-20 07:00:00 15.5 2 Este 9 Nordeste 0 925.6 -0.7 89
2019-09-20 06:00:00 15.6 3 Este 6 Este 0 925.7 -1 89
2019-09-20 05:00:00 15.9 0 Calma 5 Sudeste 0 926.1 -0.9 86
2019-09-20 04:00:00 16.4 3 Nordeste 8 Nordeste 0 926.3 -0.9 84
2019-09-20 03:00:00 16.9 2 Este 5 Este 0 926.7 -0.6 84
2019-09-20 02:00:00 17.8 2 Este 8 Este 0 927 -0.5 78
2019-09-20 01:00:00 18.4 3 Nordeste 8 Nordeste 0 927.2 0 77
2019-09-20 00:00:00 19.2 0 Calma 4 Sur 0 927.3 0.6 64
2019-09-19 23:00:00 20.8 0 Calma 6 Este 0 927.5 1 57
2019-09-19 22:00:00 22 0 Calma 9 Oeste 0 927.2 0.7 52
2019-09-19 21:00:00 22.9 0 Calma 5 Nordeste 0 926.7 0.1 49
2019-09-19 20:00:00 24.6 3 Este 13 Este 0 926.5 -0.4 41
2019-09-19 19:00:00 26.9 5 Este 12 Este 0 926.5 -0.7 35
2019-09-19 18:00:00 28.1 2 Nordeste 14 Este 0 926.6 -1.5 33
2019-09-19 17:00:00 28 5 Este 13 Este 0 926.9 -1.6 35
2019-09-19 16:00:00 27.5 3 Este 17 Este 0 927.2 -1.9 37
2019-09-19 15:00:00 27.4 4 Sudeste 16 Este 0 928.1 -1.3 39
2019-09-19 14:00:00 26 5 Este 17 Este 0 928.5 -1 43
2019-09-19 13:00:00 24.2 7 Este 14 Nordeste 0 929.1 -0.4 49
2019-09-19 12:00:00 22.1 4 Este 12 Este 0 929.4 0.2 64
2019-09-19 11:00:00 19.8 4 Este 11 Este 0 929.5 0.6 71
2019-09-19 10:00:00 17.2 3 Este 7 Sudeste 0 929.5 0.7 80
2019-09-19 09:00:00 14 0 Calma 4 Este 0 929.2 0.5 93
2019-09-19 08:00:00 13.2 0 Calma 6 Este 0 928.9 0.1 93
2019-09-19 07:00:00 13.6 2 Este 4 Este 0 928.8 -0.1 93
2019-09-19 06:00:00 14.3 0 Calma 4 Este 0 928.7 -0.5 92
2019-09-19 05:00:00 14.5 0 Calma 2 Sur 0 928.8 -0.2 92
2019-09-19 04:00:00 15 0 Calma 3 Este 0 928.9 -0.4 90
2019-09-19 03:00:00 15.5 2 Este 7 Este 0 929.2 -0.1 87
2019-09-19 02:00:00 16.3 0 Calma 4 Este 0 929 -0.2 85
2019-09-19 01:00:00 16.9 0 Calma 5 Este 0 929.3 0.3 84
2019-09-19 00:00:00 17.7 4 Este 7 Nordeste 0 929.3 0.8 79
2019-09-18 23:00:00 18.7 3 Este 6 Nordeste 0 929.2 1 72
2019-09-18 22:00:00 20 2 Este 8 Este 0 929 1.1 64
2019-09-18 21:00:00 22.1 5 Nordeste 9 Este 0 928.5 0.4 50
2019-09-18 20:00:00 24.4 4 Este 12 Nordeste 0 928.2 0.1 44
2019-09-18 19:00:00 26.3 2 Nordeste 12 Este 0 927.9 -0.7 39
2019-09-18 18:00:00 26 6 Nordeste 18 Nordeste 0 928.1 -0.8 40
2019-09-18 17:00:00 26.2 7 Nordeste 17 Noroeste 0 928.1 -1.2 40
2019-09-18 16:00:00 25 5 Nordeste 16 Nordeste 0 928.6 -0.8 39
2019-09-18 15:00:00 25.3 4 Este 13 Este 0 928.9 -0.9 45
2019-09-18 14:00:00 24.2 5 Este 16 Nordeste 0 929.3 -0.2 48
2019-09-18 13:00:00 22.4 4 Este 14 Este 0 929.4 0.2 56
2019-09-18 12:00:00 20.1 5 Este 16 Nordeste 0 929.8 0.8 66
2019-09-18 11:00:00 18.4 5 Este 12 Este 0 929.5 0.9 74
2019-09-18 10:00:00 16 4 Este 8 Este 0 929.2 1 88
2019-09-18 09:00:00 13.7 2 Este 6 Este 0 929 0.8 95
2019-09-18 08:00:00 13.3 0 Calma 7 Nordeste 0 928.6 0.4 94
2019-09-18 07:00:00 13.7 0 Calma 9 Este 0 928.2 0.1 93
2019-09-18 06:00:00 13.9 2 Este 13 Nordeste 0 928.2 -0.2 93
2019-09-18 05:00:00 14.4 5 Nordeste 10 Nordeste 0 928.2 -0.4 92
2019-09-18 04:00:00 14.6 2 Nordeste 7 Este 0 928.1 -0.3 91
2019-09-18 03:00:00 15.2 0 Calma 17 Este 0 928.4 0 90
2019-09-18 02:00:00 15.2 8 Nordeste 14 Este 0 928.6 -0.4 88
2019-09-18 01:00:00 15.7 6 Nordeste 11 Nordeste 0 928.4 -1.3 88
2019-09-18 00:00:00 15.9 2 Noroeste 19 Nordeste 0.5 928.4 -0.3 84
2019-09-17 23:00:00 15.8 15 Nordeste 26 Nordeste 0.2 929 0.6 82
2019-09-17 22:00:00 16.6 9 Sudeste 28 Sudeste 0.2 929.7 1.9 76
2019-09-17 21:00:00 17.4 13 Sudeste 35 Sudeste 0 928.7 1.3 78
2019-09-15 18:00:00 17.5 4 Este 34 Este 4.4 930.2 -0.4 86
2019-09-15 17:00:00 23.4 7 Este 28 Sudeste 0 930 -1.3 52
2019-09-15 16:00:00 24.5 6 Nordeste 22 Nordeste 0 930.1 -1.6 53
2019-09-15 15:00:00 24.3 7 Nordeste 18 Este 0 930.6 -1.5 51
2019-09-15 14:00:00 21.9 7 Este 18 Nordeste 0 931.3 -0.7 62
2019-09-15 13:00:00 20.8 8 Nordeste 27 Nordeste 0 931.7 0.1 71
2019-09-15 12:00:00 19 11 Nordeste 24 Nordeste 0 932.1 0.7 82
2019-09-15 11:00:00 17.4 3 Nordeste 10 Nordeste 0 932 0.3 90
2019-09-15 10:00:00 16.6 2 Nordeste 9 Nordeste 0 931.6 -0.1 93
2019-09-15 09:00:00 15.8 2 Noroeste 7 Noroeste 0.3 931.4 0.1 95
2019-09-15 08:00:00 15.5 0 Calma 5 Este 0 931.7 -0.2 97
2019-09-15 07:00:00 15.2 0 Calma 15 Nordeste 8 931.7 -0.4 97
2019-09-15 06:00:00 15.5 0 Calma 5 Nordeste 0 931.3 -0.8 94
2019-09-15 05:00:00 15.3 0 Calma 7 Nordeste 0 931.9 -0.8 94
2019-09-15 04:00:00 15.6 2 Este 8 Nordeste 0 932.1 -1.1 94
2019-09-15 03:00:00 16.1 4 Nordeste 9 Nordeste 0 932.1 -0.9 93
2019-09-15 02:00:00 16.3 5 Nordeste 9 Este 0 932.7 -0.2 93
2019-09-15 01:00:00 16.7 0 Calma 23 Este 1.3 933.2 0.6 91
2019-09-15 00:00:00 18.1 5 Este 24 Este 0 933 0.7 72